sensor_id;sensor_type;location;lat;lon;timestamp;pressure;altitude;pressure_sealevel;temperature;humidity
38780;BME280;29273;49.962;9.768;2023-04-07T00:00:16;99870.78;;;11.63;45.81
38780;BME280;29273;49.962;9.768;2023-04-07T00:02:42;99876.09;;;11.63;46.29
38780;BME280;29273;49.962;9.768;2023-04-07T00:05:08;99864.03;;;11.60;46.71
38780;BME280;29273;49.962;9.768;2023-04-07T00:07:33;99864.03;;;11.60;47.11
38780;BME280;29273;49.962;9.768;2023-04-07T00:09:59;99862.44;;;11.59;46.97
38780;BME280;29273;49.962;9.768;2023-04-07T00:12:24;99870.59;;;11.58;46.83
38780;BME280;29273;49.962;9.768;2023-04-07T00:14:50;99863.66;;;11.57;47.19
38780;BME280;29273;49.962;9.768;2023-04-07T00:17:15;99860.19;;;11.56;47.70
38780;BME280;29273;49.962;9.768;2023-04-07T00:19:41;99862.03;;;11.56;47.85
38780;BME280;29273;49.962;9.768;2023-04-07T00:22:08;99855.09;;;11.55;47.67
38780;BME280;29273;49.962;9.768;2023-04-07T00:24:33;99861.19;;;11.55;47.88
38780;BME280;29273;49.962;9.768;2023-04-07T00:26:59;99855.09;;;11.55;47.59
38780;BME280;29273;49.962;9.768;2023-04-07T00:29:25;99852.84;;;11.52;48.76
38780;BME280;29273;49.962;9.768;2023-04-07T00:31:50;99860.81;;;11.52;48.94
38780;BME280;29273;49.962;9.768;2023-04-07T00:34:16;99853.06;;;11.50;49.17
38780;BME280;29273;49.962;9.768;2023-04-07T00:36:41;99856.94;;;11.47;49.25
38780;BME280;29273;49.962;9.768;2023-04-07T00:39:07;99849.19;;;11.46;49.98
38780;BME280;29273;49.962;9.768;2023-04-07T00:41:34;99845.91;;;11.44;50.21
38780;BME280;29273;49.962;9.768;2023-04-07T00:44:00;99837.34;;;11.42;50.31
38780;BME280;29273;49.962;9.768;2023-04-07T00:46:26;99842.66;;;11.42;50.53
38780;BME280;29273;49.962;9.768;2023-04-07T00:48:52;99843.69;;;11.41;50.67
38780;BME280;29273;49.962;9.768;2023-04-07T00:51:20;99837.34;;;11.42;49.98
38780;BME280;29273;49.962;9.768;2023-04-07T00:53:47;99833.50;;;11.38;51.18
38780;BME280;29273;49.962;9.768;2023-04-07T00:56:12;99835.50;;;11.36;51.56
38780;BME280;29273;49.962;9.768;2023-04-07T00:58:38;99831.06;;;11.36;51.70
38780;BME280;29273;49.962;9.768;2023-04-07T01:01:15;99830.44;;;11.41;50.00
38780;BME280;29273;49.962;9.768;2023-04-07T01:03:51;99825.34;;;11.39;50.04
38780;BME280;29273;49.962;9.768;2023-04-07T01:06:23;99830.00;;;11.37;50.59
38780;BME280;29273;49.962;9.768;2023-04-07T01:11:43;99817.41;;;11.26;49.81
38780;BME280;29273;49.962;9.768;2023-04-07T01:14:17;99820.47;;;11.23;52.01
38780;BME280;29273;49.962;9.768;2023-04-07T01:16:48;99821.47;;;11.22;51.41
38780;BME280;29273;49.962;9.768;2023-04-07T01:22:20;99823.13;;;11.16;51.37
38780;BME280;29273;49.962;9.768;2023-04-07T01:30:22;99814.97;;;11.04;52.47
38780;BME280;29273;49.962;9.768;2023-04-07T01:32:51;99828.22;;;11.04;52.36
38780;BME280;29273;49.962;9.768;2023-04-07T01:35:17;99817.41;;;10.99;53.41
38780;BME280;29273;49.962;9.768;2023-04-07T01:37:44;99818.22;;;11.00;53.10
38780;BME280;29273;49.962;9.768;2023-04-07T01:40:14;99810.69;;;10.97;53.31
38780;BME280;29273;49.962;9.768;2023-04-07T01:42:41;99818.81;;;10.95;53.18
38780;BME280;29273;49.962;9.768;2023-04-07T01:45:07;99809.47;;;10.92;53.77
38780;BME280;29273;49.962;9.768;2023-04-07T01:47:34;99813.53;;;10.95;53.12
38780;BME280;29273;49.962;9.768;2023-04-07T01:50:02;99808.84;;;10.90;53.62
38780;BME280;29273;49.962;9.768;2023-04-07T01:52:32;99809.66;;;10.91;53.47
38780;BME280;29273;49.962;9.768;2023-04-07T01:54:58;99816.97;;;10.89;53.89
38780;BME280;29273;49.962;9.768;2023-04-07T01:57:25;99816.97;;;10.89;54.23
38780;BME280;29273;49.962;9.768;2023-04-07T01:59:55;99815.16;;;10.89;54.19
38780;BME280;29273;49.962;9.768;2023-04-07T02:02:23;99809.03;;;10.89;54.38
38780;BME280;29273;49.962;9.768;2023-04-07T02:05:05;99807.81;;;10.91;52.35
38780;BME280;29273;49.962;9.768;2023-04-07T02:07:44;99802.53;;;10.91;53.31
38780;BME280;29273;49.962;9.768;2023-04-07T02:10:12;99809.25;;;10.87;54.29
38780;BME280;29273;49.962;9.768;2023-04-07T02:12:41;99804.38;;;10.84;54.42
38780;BME280;29273;49.962;9.768;2023-04-07T02:15:14;99801.91;;;10.83;54.57
38780;BME280;29273;49.962;9.768;2023-04-07T02:17:46;99803.34;;;10.85;54.12
38780;BME280;29273;49.962;9.768;2023-04-07T02:20:12;99798.63;;;10.81;54.78
38780;BME280;29273;49.962;9.768;2023-04-07T02:22:38;99797.84;;;10.80;55.05
38780;BME280;29273;49.962;9.768;2023-04-07T02:25:25;99796.63;;;10.83;52.98
38780;BME280;29273;49.962;9.768;2023-04-07T02:27:53;99792.72;;;10.79;54.81
38780;BME280;29273;49.962;9.768;2023-04-07T02:30:19;99794.38;;;10.80;55.23
38780;BME280;29273;49.962;9.768;2023-04-07T02:32:44;99789.28;;;10.78;55.07
38780;BME280;29273;49.962;9.768;2023-04-07T02:35:10;99787.63;;;10.77;55.07
38780;BME280;29273;49.962;9.768;2023-04-07T02:37:37;99785.81;;;10.78;55.01
38780;BME280;29273;49.962;9.768;2023-04-07T02:40:03;99783.97;;;10.78;54.85
38780;BME280;29273;49.962;9.768;2023-04-07T02:42:29;99780.94;;;10.74;55.02
38780;BME280;29273;49.962;9.768;2023-04-07T02:44:55;99776.44;;;10.75;55.20
38780;BME280;29273;49.962;9.768;2023-04-07T02:47:20;99777.44;;;10.74;54.95
38780;BME280;29273;49.962;9.768;2023-04-07T02:49:48;99782.97;;;10.72;54.96
38780;BME280;29273;49.962;9.768;2023-04-07T02:52:13;99780.53;;;10.71;55.16
38780;BME280;29273;49.962;9.768;2023-04-07T02:54:39;99777.25;;;10.69;55.21
38780;BME280;29273;49.962;9.768;2023-04-07T02:57:06;99779.88;;;10.69;55.36
38780;BME280;29273;49.962;9.768;2023-04-07T02:59:31;99774.59;;;10.69;55.47
38780;BME280;29273;49.962;9.768;2023-04-07T03:01:57;99770.53;;;10.66;55.39
38780;BME280;29273;49.962;9.768;2023-04-07T03:04:23;99765.63;;;10.63;55.41
38780;BME280;29273;49.962;9.768;2023-04-07T03:06:49;99768.28;;;10.63;55.58
38780;BME280;29273;49.962;9.768;2023-04-07T03:09:15;99764.00;;;10.62;55.37
38780;BME280;29273;49.962;9.768;2023-04-07T03:11:40;99765.84;;;10.62;55.40
38780;BME280;29273;49.962;9.768;2023-04-07T03:14:06;99767.69;;;10.61;55.55
38780;BME280;29273;49.962;9.768;2023-04-07T03:16:39;99762.59;;;10.60;55.44
38780;BME280;29273;49.962;9.768;2023-04-07T03:19:08;99748.31;;;10.61;55.61
38780;BME280;29273;49.962;9.768;2023-04-07T03:21:38;99757.09;;;10.61;55.85
38780;BME280;29273;49.962;9.768;2023-04-07T03:24:04;99749.94;;;10.62;55.58
38780;BME280;29273;49.962;9.768;2023-04-07T03:26:30;99759.72;;;10.61;56.03
38780;BME280;29273;49.962;9.768;2023-04-07T03:28:56;99753.59;;;10.61;56.01
38780;BME280;29273;49.962;9.768;2023-04-07T03:31:23;99749.94;;;10.62;55.80
38780;BME280;29273;49.962;9.768;2023-04-07T03:33:51;99747.28;;;10.62;55.65
38780;BME280;29273;49.962;9.768;2023-04-07T03:36:17;99748.94;;;10.63;55.60
38780;BME280;29273;49.962;9.768;2023-04-07T03:38:46;99742.41;;;10.65;55.37
38780;BME280;29273;49.962;9.768;2023-04-07T03:41:12;99743.66;;;10.63;55.51
38780;BME280;29273;49.962;9.768;2023-04-07T03:43:38;99736.72;;;10.62;55.33
38780;BME280;29273;49.962;9.768;2023-04-07T03:46:03;99735.69;;;10.63;55.46
38780;BME280;29273;49.962;9.768;2023-04-07T03:48:30;99738.34;;;10.63;55.64
38780;BME280;29273;49.962;9.768;2023-04-07T03:51:05;99733.84;;;10.63;55.77
38780;BME280;29273;49.962;9.768;2023-04-07T03:53:31;99734.66;;;10.64;55.93
38780;BME280;29273;49.962;9.768;2023-04-07T03:56:00;99739.16;;;10.63;55.71
38780;BME280;29273;49.962;9.768;2023-04-07T03:58:40;99739.97;;;10.64;56.01
38780;BME280;29273;49.962;9.768;2023-04-07T04:01:10;99740.78;;;10.64;56.00
38780;BME280;29273;49.962;9.768;2023-04-07T04:03:37;99735.28;;;10.66;55.95
38780;BME280;29273;49.962;9.768;2023-04-07T04:06:17;99731.00;;;10.65;56.12
38780;BME280;29273;49.962;9.768;2023-04-07T04:08:42;99731.81;;;10.65;56.02
38780;BME280;29273;49.962;9.768;2023-04-07T04:11:09;99735.50;;;10.64;55.91
38780;BME280;29273;49.962;9.768;2023-04-07T04:13:42;99733.66;;;10.65;56.12
38780;BME280;29273;49.962;9.768;2023-04-07T04:16:08;99735.50;;;10.64;55.76
38780;BME280;29273;49.962;9.768;2023-04-07T04:18:36;99736.31;;;10.65;55.97
38780;BME280;29273;49.962;9.768;2023-04-07T04:21:02;99729.38;;;10.64;56.01
38780;BME280;29273;49.962;9.768;2023-04-07T04:23:29;99733.66;;;10.65;56.16
38780;BME280;29273;49.962;9.768;2023-04-07T04:25:56;99729.38;;;10.64;56.05
38780;BME280;29273;49.962;9.768;2023-04-07T04:28:25;99732.00;;;10.64;56.14
38780;BME280;29273;49.962;9.768;2023-04-07T04:30:51;99727.75;;;10.63;56.26
38780;BME280;29273;49.962;9.768;2023-04-07T04:33:18;99738.16;;;10.64;56.15
38780;BME280;29273;49.962;9.768;2023-04-07T04:35:54;99732.00;;;10.64;56.17
38780;BME280;29273;49.962;9.768;2023-04-07T04:38:21;99732.84;;;10.64;56.36
38780;BME280;29273;49.962;9.768;2023-04-07T04:40:54;99732.00;;;10.64;56.28
38780;BME280;29273;49.962;9.768;2023-04-07T04:43:25;99732.22;;;10.62;56.14
38780;BME280;29273;49.962;9.768;2023-04-07T04:45:50;99733.84;;;10.63;56.33
38780;BME280;29273;49.962;9.768;2023-04-07T04:48:18;99731.22;;;10.63;56.23
38780;BME280;29273;49.962;9.768;2023-04-07T04:50:43;99730.19;;;10.64;56.26
38780;BME280;29273;49.962;9.768;2023-04-07T04:53:11;99737.31;;;10.64;56.22
38780;BME280;29273;49.962;9.768;2023-04-07T04:55:44;99728.56;;;10.63;56.26
38780;BME280;29273;49.962;9.768;2023-04-07T04:58:17;99729.38;;;10.64;56.08
38780;BME280;29273;49.962;9.768;2023-04-07T05:00:46;99739.97;;;10.64;56.33
38780;BME280;29273;49.962;9.768;2023-04-07T05:03:12;99732.84;;;10.64;56.39
38780;BME280;29273;49.962;9.768;2023-04-07T05:05:40;99731.00;;;10.65;56.54
38780;BME280;29273;49.962;9.768;2023-04-07T05:08:09;99730.81;;;10.66;56.31
38780;BME280;29273;49.962;9.768;2023-04-07T05:10:39;99732.22;;;10.69;55.76
38780;BME280;29273;49.962;9.768;2023-04-07T05:13:08;99737.31;;;10.64;56.50
38780;BME280;29273;49.962;9.768;2023-04-07T05:15:34;99735.28;;;10.66;56.50
38780;BME280;29273;49.962;9.768;2023-04-07T05:18:00;99735.28;;;10.66;56.61
38780;BME280;29273;49.962;9.768;2023-04-07T05:20:27;99727.13;;;10.67;56.57
38780;BME280;29273;49.962;9.768;2023-04-07T05:22:53;99735.91;;;10.68;56.58
38780;BME280;29273;49.962;9.768;2023-04-07T05:25:22;99734.06;;;10.68;56.71
38780;BME280;29273;49.962;9.768;2023-04-07T05:27:51;99734.66;;;10.70;56.76
38780;BME280;29273;49.962;9.768;2023-04-07T05:30:17;99739.97;;;10.70;56.64
38780;BME280;29273;49.962;9.768;2023-04-07T05:32:43;99734.47;;;10.72;56.59
38780;BME280;29273;49.962;9.768;2023-04-07T05:35:19;99734.47;;;10.72;56.83
38780;BME280;29273;49.962;9.768;2023-04-07T05:37:50;99736.09;;;10.73;56.66
38780;BME280;29273;49.962;9.768;2023-04-07T05:40:16;99728.97;;;10.73;56.92
38780;BME280;29273;49.962;9.768;2023-04-07T05:42:42;99735.91;;;10.74;56.87
38780;BME280;29273;49.962;9.768;2023-04-07T05:45:09;99739.34;;;10.75;57.08
38780;BME280;29273;49.962;9.768;2023-04-07T05:47:38;99735.69;;;10.76;57.03
38780;BME280;29273;49.962;9.768;2023-04-07T05:50:04;99738.13;;;10.78;56.97
38780;BME280;29273;49.962;9.768;2023-04-07T05:52:32;99736.09;;;10.80;56.79
38780;BME280;29273;49.962;9.768;2023-04-07T05:55:07;99734.47;;;10.79;56.65
38780;BME280;29273;49.962;9.768;2023-04-07T05:57:33;99731.59;;;10.80;56.57
38780;BME280;29273;49.962;9.768;2023-04-07T06:00:02;99734.25;;;10.80;56.71
38780;BME280;29273;49.962;9.768;2023-04-07T06:02:29;99737.50;;;10.82;56.86
38780;BME280;29273;49.962;9.768;2023-04-07T06:04:55;99736.69;;;10.82;56.99
38780;BME280;29273;49.962;9.768;2023-04-07T06:07:21;99740.34;;;10.81;56.71
38780;BME280;29273;49.962;9.768;2023-04-07T06:09:47;99742.00;;;10.82;56.86
38780;BME280;29273;49.962;9.768;2023-04-07T06:12:13;99745.44;;;10.82;56.86
38780;BME280;29273;49.962;9.768;2023-04-07T06:14:41;99746.09;;;10.84;56.86
38780;BME280;29273;49.962;9.768;2023-04-07T06:17:06;99744.66;;;10.82;56.80
38780;BME280;29273;49.962;9.768;2023-04-07T06:19:32;99747.91;;;10.84;56.98
38780;BME280;29273;49.962;9.768;2023-04-07T06:21:59;99743.63;;;10.83;56.71
38780;BME280;29273;49.962;9.768;2023-04-07T06:24:25;99741.78;;;10.83;56.66
38780;BME280;29273;49.962;9.768;2023-04-07T06:26:54;99742.00;;;10.88;56.06
38780;BME280;29273;49.962;9.768;2023-04-07T06:29:21;99744.25;;;10.85;56.78
38780;BME280;29273;49.962;9.768;2023-04-07T06:31:46;99741.38;;;10.86;56.71
38780;BME280;29273;49.962;9.768;2023-04-07T06:34:12;99738.75;;;10.86;56.83
38780;BME280;29273;49.962;9.768;2023-04-07T06:36:37;99743.84;;;10.88;56.56
38780;BME280;29273;49.962;9.768;2023-04-07T06:39:03;99741.78;;;10.90;56.81
38780;BME280;29273;49.962;9.768;2023-04-07T06:41:29;99746.88;;;10.91;56.91
38780;BME280;29273;49.962;9.768;2023-04-07T06:43:56;99738.94;;;10.91;56.99
38780;BME280;29273;49.962;9.768;2023-04-07T06:46:21;99745.66;;;10.94;56.76
38780;BME280;29273;49.962;9.768;2023-04-07T06:48:47;99737.50;;;10.96;56.79
38780;BME280;29273;49.962;9.768;2023-04-07T06:51:12;99735.47;;;10.98;56.96
38780;BME280;29273;49.962;9.768;2023-04-07T06:53:37;99735.06;;;11.01;57.08
38780;BME280;29273;49.962;9.768;2023-04-07T06:56:05;99736.28;;;11.05;56.62
38780;BME280;29273;49.962;9.768;2023-04-07T06:58:30;99733.41;;;11.06;56.57
38780;BME280;29273;49.962;9.768;2023-04-07T07:00:56;99737.47;;;11.09;56.77
38780;BME280;29273;49.962;9.768;2023-04-07T07:03:21;99739.91;;;11.10;56.48
38780;BME280;29273;49.962;9.768;2023-04-07T07:05:47;99739.31;;;11.15;56.71
38780;BME280;29273;49.962;9.768;2023-04-07T07:08:12;99744.19;;;11.18;56.56
38780;BME280;29273;49.962;9.768;2023-04-07T07:10:38;99736.84;;;11.20;56.48
38780;BME280;29273;49.962;9.768;2023-04-07T07:13:03;99743.59;;;11.23;56.44
38780;BME280;29273;49.962;9.768;2023-04-07T07:15:29;99738.69;;;11.26;56.47
38780;BME280;29273;49.962;9.768;2023-04-07T07:17:54;99739.28;;;11.28;56.51
38780;BME280;29273;49.962;9.768;2023-04-07T07:20:20;99741.53;;;11.32;56.62
38780;BME280;29273;49.962;9.768;2023-04-07T07:22:48;99741.72;;;11.37;56.80
38780;BME280;29273;49.962;9.768;2023-04-07T07:25:13;99746.81;;;11.38;57.08
38780;BME280;29273;49.962;9.768;2023-04-07T07:27:39;99742.94;;;11.41;56.89
38780;BME280;29273;49.962;9.768;2023-04-07T07:30:05;99750.25;;;11.45;56.72
38780;BME280;29273;49.962;9.768;2023-04-07T07:32:30;99755.34;;;11.47;56.52
38780;BME280;29273;49.962;9.768;2023-04-07T07:34:56;99755.13;;;11.48;56.60
38780;BME280;29273;49.962;9.768;2023-04-07T07:37:21;99751.25;;;11.51;56.51
38780;BME280;29273;49.962;9.768;2023-04-07T07:39:47;99751.84;;;11.53;56.75
38780;BME280;29273;49.962;9.768;2023-04-07T07:42:12;99750.84;;;11.54;56.95
38780;BME280;29273;49.962;9.768;2023-04-07T07:44:38;99751.44;;;11.56;56.99
38780;BME280;29273;49.962;9.768;2023-04-07T07:47:03;99761.84;;;11.58;56.65
38780;BME280;29273;49.962;9.768;2023-04-07T07:49:29;99759.78;;;11.60;56.93
38780;BME280;29273;49.962;9.768;2023-04-07T07:51:55;99761.44;;;11.61;56.90
38780;BME280;29273;49.962;9.768;2023-04-07T07:54:20;99757.94;;;11.60;56.72
38780;BME280;29273;49.962;9.768;2023-04-07T07:56:46;99763.03;;;11.62;57.22
38780;BME280;29273;49.962;9.768;2023-04-07T07:59:11;99760.38;;;11.62;57.35
38780;BME280;29273;49.962;9.768;2023-04-07T08:01:37;99761.00;;;11.64;57.08
38780;BME280;29273;49.962;9.768;2023-04-07T08:04:02;99763.44;;;11.65;57.15
38780;BME280;29273;49.962;9.768;2023-04-07T08:06:28;99766.72;;;11.68;56.64
38780;BME280;29273;49.962;9.768;2023-04-07T08:08:53;99765.66;;;11.69;56.68
38780;BME280;29273;49.962;9.768;2023-04-07T08:11:19;99764.66;;;11.70;56.72
38780;BME280;29273;49.962;9.768;2023-04-07T08:13:45;99764.47;;;11.71;57.16
38780;BME280;29273;49.962;9.768;2023-04-07T08:16:11;99774.84;;;11.73;57.29
38780;BME280;29273;49.962;9.768;2023-04-07T08:18:36;99777.31;;;11.74;57.42
38780;BME280;29273;49.962;9.768;2023-04-07T08:21:05;99768.47;;;11.80;56.38
38780;BME280;29273;49.962;9.768;2023-04-07T08:23:31;99766.25;;;11.77;57.13
38780;BME280;29273;49.962;9.768;2023-04-07T08:25:56;99768.69;;;11.79;57.01
38780;BME280;29273;49.962;9.768;2023-04-07T08:28:24;99777.06;;;11.82;57.00
38780;BME280;29273;49.962;9.768;2023-04-07T08:30:50;99777.88;;;11.83;57.46
38780;BME280;29273;49.962;9.768;2023-04-07T08:33:15;99784.59;;;11.85;57.23
38780;BME280;29273;49.962;9.768;2023-04-07T08:35:41;99779.06;;;11.87;57.38
38780;BME280;29273;49.962;9.768;2023-04-07T08:38:06;99778.84;;;11.89;57.57
38780;BME280;29273;49.962;9.768;2023-04-07T08:40:34;99772.16;;;11.93;57.60
38780;BME280;29273;49.962;9.768;2023-04-07T08:43:06;99778.22;;;12.00;56.77
38780;BME280;29273;49.962;9.768;2023-04-07T08:45:33;99780.28;;;11.98;56.92
38780;BME280;29273;49.962;9.768;2023-04-07T08:48:03;99783.50;;;12.07;56.41
38780;BME280;29273;49.962;9.768;2023-04-07T08:50:32;99782.91;;;12.05;57.40
38780;BME280;29273;49.962;9.768;2023-04-07T08:53:01;99781.03;;;12.12;56.80
38780;BME280;29273;49.962;9.768;2023-04-07T08:55:31;99782.28;;;12.09;56.90
38780;BME280;29273;49.962;9.768;2023-04-07T08:57:56;99783.91;;;12.10;56.97
38780;BME280;29273;49.962;9.768;2023-04-07T09:00:22;99780.03;;;12.13;57.27
38780;BME280;29273;49.962;9.768;2023-04-07T09:02:49;99783.88;;;12.17;56.78
38780;BME280;29273;49.962;9.768;2023-04-07T09:05:16;99778.97;;;12.14;56.33
38780;BME280;29273;49.962;9.768;2023-04-07T09:07:41;99785.72;;;12.16;56.43
38780;BME280;29273;49.962;9.768;2023-04-07T09:10:10;99788.38;;;12.16;56.76
38780;BME280;29273;49.962;9.768;2023-04-07T09:12:36;99791.03;;;12.16;56.62
38780;BME280;29273;49.962;9.768;2023-04-07T09:15:02;99789.16;;;12.17;56.87
38780;BME280;29273;49.962;9.768;2023-04-07T09:17:28;99780.41;;;12.16;56.91
38780;BME280;29273;49.962;9.768;2023-04-07T09:19:55;99785.28;;;12.19;56.83
38780;BME280;29273;49.962;9.768;2023-04-07T09:22:37;99788.13;;;12.25;56.29
38780;BME280;29273;49.962;9.768;2023-04-07T09:25:17;99787.06;;;12.26;56.59
38780;BME280;29273;49.962;9.768;2023-04-07T09:30:19;99786.06;;;12.27;57.30
38780;BME280;29273;49.962;9.768;2023-04-07T09:32:44;99780.13;;;12.31;56.94
38780;BME280;29273;49.962;9.768;2023-04-07T09:35:10;99791.13;;;12.35;57.43
38780;BME280;29273;49.962;9.768;2023-04-07T09:37:35;99787.03;;;12.39;57.34
38780;BME280;29273;49.962;9.768;2023-04-07T09:40:01;99788.22;;;12.43;57.00
38780;BME280;29273;49.962;9.768;2023-04-07T09:42:27;99788.59;;;12.47;56.96
38780;BME280;29273;49.962;9.768;2023-04-07T09:44:59;99788.13;;;12.56;56.72
38780;BME280;29273;49.962;9.768;2023-04-07T09:47:30;99788.50;;;12.60;56.81
38780;BME280;29273;49.962;9.768;2023-04-07T09:49:56;99788.34;;;12.55;56.47
38780;BME280;29273;49.962;9.768;2023-04-07T09:52:52;99791.38;;;12.58;56.00
38780;BME280;29273;49.962;9.768;2023-04-07T09:55:21;99788.72;;;12.58;56.20
38780;BME280;29273;49.962;9.768;2023-04-07T09:57:50;99795.66;;;12.59;56.36
38780;BME280;29273;49.962;9.768;2023-04-07T10:00:16;99789.59;;;12.52;56.88
38780;BME280;29273;49.962;9.768;2023-04-07T10:02:42;99795.94;;;12.51;56.79
38780;BME280;29273;49.962;9.768;2023-04-07T10:05:09;99788.97;;;12.50;56.61
38780;BME280;29273;49.962;9.768;2023-04-07T10:07:35;99791.25;;;12.47;56.64
38780;BME280;29273;49.962;9.768;2023-04-07T10:10:02;99789.41;;;12.47;56.62
38780;BME280;29273;49.962;9.768;2023-04-07T10:12:28;99787.56;;;12.48;56.96
38780;BME280;29273;49.962;9.768;2023-04-07T10:14:56;99782.47;;;12.46;56.44
38780;BME280;29273;49.962;9.768;2023-04-07T10:17:23;99785.94;;;12.47;56.74
38780;BME280;29273;49.962;9.768;2023-04-07T10:19:49;99790.81;;;12.50;56.53
38780;BME280;29273;49.962;9.768;2023-04-07T10:22:16;99787.97;;;12.51;56.31
38780;BME280;29273;49.962;9.768;2023-04-07T10:24:48;99782.44;;;12.53;56.29
38780;BME280;29273;49.962;9.768;2023-04-07T10:27:19;99789.09;;;12.62;56.85
38780;BME280;29273;49.962;9.768;2023-04-07T10:29:48;99788.25;;;12.68;56.53
38780;BME280;29273;49.962;9.768;2023-04-07T10:32:15;99791.69;;;12.69;56.77
38780;BME280;29273;49.962;9.768;2023-04-07T10:37:18;99787.72;;;12.85;56.47
38780;BME280;29273;49.962;9.768;2023-04-07T10:39:48;99787.66;;;12.91;55.92
38780;BME280;29273;49.962;9.768;2023-04-07T10:45:04;99792.28;;;13.03;55.79
38780;BME280;29273;49.962;9.768;2023-04-07T10:47:29;99788.34;;;13.05;55.82
38780;BME280;29273;49.962;9.768;2023-04-07T10:50:18;99784.22;;;13.09;55.65
38780;BME280;29273;49.962;9.768;2023-04-07T10:52:45;99788.72;;;13.09;55.79
38780;BME280;29273;49.962;9.768;2023-04-07T10:55:34;99793.38;;;13.13;55.51
38780;BME280;29273;49.962;9.768;2023-04-07T10:58:31;99792.59;;;13.13;56.10
38780;BME280;29273;49.962;9.768;2023-04-07T11:03:37;99796.66;;;13.16;55.50
38780;BME280;29273;49.962;9.768;2023-04-07T11:06:10;99787.63;;;13.17;55.73
38780;BME280;29273;49.962;9.768;2023-04-07T11:08:37;99789.13;;;13.12;56.02
38780;BME280;29273;49.962;9.768;2023-04-07T11:11:03;99792.75;;;13.18;54.88
38780;BME280;29273;49.962;9.768;2023-04-07T11:13:48;99797.56;;;13.28;55.77
38780;BME280;29273;49.962;9.768;2023-04-07T11:16:15;99793.25;;;13.27;55.64
38780;BME280;29273;49.962;9.768;2023-04-07T11:18:41;99787.28;;;13.31;55.68
38780;BME280;29273;49.962;9.768;2023-04-07T11:21:07;99781.72;;;13.40;55.35
38780;BME280;29273;49.962;9.768;2023-04-07T11:23:42;99791.19;;;13.54;55.83
38780;BME280;29273;49.962;9.768;2023-04-07T11:26:09;99794.22;;;13.58;55.38
38780;BME280;29273;49.962;9.768;2023-04-07T11:29:01;99795.53;;;13.67;55.10
38780;BME280;29273;49.962;9.768;2023-04-07T11:31:28;99797.38;;;13.66;54.76
38780;BME280;29273;49.962;9.768;2023-04-07T11:38:56;99800.84;;;13.67;54.17
38780;BME280;29273;49.962;9.768;2023-04-07T11:41:22;99801.06;;;13.65;53.70
38780;BME280;29273;49.962;9.768;2023-04-07T11:43:48;99797.03;;;13.63;53.38
38780;BME280;29273;49.962;9.768;2023-04-07T11:46:15;99805.81;;;13.63;53.56
38780;BME280;29273;49.962;9.768;2023-04-07T11:48:42;99800.94;;;13.60;53.32
38780;BME280;29273;49.962;9.768;2023-04-07T11:51:19;99803.16;;;13.63;54.12
38780;BME280;29273;49.962;9.768;2023-04-07T11:53:45;99803.00;;;13.58;53.73
38780;BME280;29273;49.962;9.768;2023-04-07T11:56:15;99800.72;;;13.62;53.87
38780;BME280;29273;49.962;9.768;2023-04-07T11:58:49;99804.44;;;13.61;54.13
38780;BME280;29273;49.962;9.768;2023-04-07T12:01:15;99806.09;;;13.55;54.05
38780;BME280;29273;49.962;9.768;2023-04-07T12:03:55;99806.03;;;13.62;53.93
38780;BME280;29273;49.962;9.768;2023-04-07T12:06:30;99798.66;;;13.64;54.25
38780;BME280;29273;49.962;9.768;2023-04-07T12:09:00;99797.81;;;13.63;54.26
38780;BME280;29273;49.962;9.768;2023-04-07T12:11:25;99799.84;;;13.68;54.20
38780;BME280;29273;49.962;9.768;2023-04-07T12:13:51;99798.34;;;13.72;54.23
38780;BME280;29273;49.962;9.768;2023-04-07T12:16:17;99797.00;;;13.81;53.73
38780;BME280;29273;49.962;9.768;2023-04-07T12:18:43;99798.56;;;13.89;54.03
38780;BME280;29273;49.962;9.768;2023-04-07T12:21:09;99795.59;;;13.97;53.88
38780;BME280;29273;49.962;9.768;2023-04-07T12:23:35;99796.91;;;14.06;54.10
38780;BME280;29273;49.962;9.768;2023-04-07T12:26:00;99794.50;;;14.17;54.33
38780;BME280;29273;49.962;9.768;2023-04-07T12:28:26;99799.88;;;14.29;53.33
38780;BME280;29273;49.962;9.768;2023-04-07T12:30:53;99791.56;;;14.37;52.10
38780;BME280;29273;49.962;9.768;2023-04-07T12:33:18;99790.22;;;14.46;51.85
38780;BME280;29273;49.962;9.768;2023-04-07T12:35:44;99789.31;;;14.52;52.92
38780;BME280;29273;49.962;9.768;2023-04-07T12:38:10;99789.03;;;14.60;53.44
38780;BME280;29273;49.962;9.768;2023-04-07T12:40:35;99788.66;;;14.69;52.89
38780;BME280;29273;49.962;9.768;2023-04-07T12:43:02;99783.84;;;14.77;51.71
38780;BME280;29273;49.962;9.768;2023-04-07T12:45:27;99783.72;;;14.84;51.52
38780;BME280;29273;49.962;9.768;2023-04-07T12:47:55;99778.53;;;14.89;52.30
38780;BME280;29273;49.962;9.768;2023-04-07T12:50:21;99781.06;;;14.96;51.22
38780;BME280;29273;49.962;9.768;2023-04-07T12:52:46;99776.66;;;15.02;52.29
38780;BME280;29273;49.962;9.768;2023-04-07T12:55:12;99769.59;;;15.07;51.92
38780;BME280;29273;49.962;9.768;2023-04-07T12:57:38;99776.66;;;15.13;50.86
38780;BME280;29273;49.962;9.768;2023-04-07T13:00:04;99774.09;;;15.18;51.94
38780;BME280;29273;49.962;9.768;2023-04-07T13:02:30;99781.41;;;15.23;50.96
38780;BME280;29273;49.962;9.768;2023-04-07T13:04:56;99777.25;;;15.27;50.14
38780;BME280;29273;49.962;9.768;2023-04-07T13:07:21;99777.03;;;15.29;50.94
38780;BME280;29273;49.962;9.768;2023-04-07T13:09:47;99778.41;;;15.31;50.51
38780;BME280;29273;49.962;9.768;2023-04-07T13:12:12;99774.69;;;15.32;49.59
38780;BME280;29273;49.962;9.768;2023-04-07T13:14:39;99770.50;;;15.36;50.94
38780;BME280;29273;49.962;9.768;2023-04-07T13:17:06;99774.22;;;15.35;49.53
38780;BME280;29273;49.962;9.768;2023-04-07T13:19:32;99774.81;;;15.38;49.79
38780;BME280;29273;49.962;9.768;2023-04-07T13:21:58;99781.19;;;15.36;49.49
38780;BME280;29273;49.962;9.768;2023-04-07T13:24:23;99771.34;;;15.37;50.14
38780;BME280;29273;49.962;9.768;2023-04-07T13:26:49;99775.59;;;15.38;50.14
38780;BME280;29273;49.962;9.768;2023-04-07T13:29:16;99767.59;;;15.38;49.42